Driscoll, North Dakota
Current Conditions -  °F | °C
As of 7:52 AM on Wednesday 22 Oct 2014 (Local Time) from KBIS Reporting Station
Clear Clear  
Wind Chill: 57°   Ceiling: Unl
Heat Index: 57°   Visibility: 10mi
Dew Point: 47°   Wind: 17mph
Humidity: 69%   Direction: 300°WNW
Pressure: 29.78"   Gusts: 24mph
Location:  46.84°N, 100.14°W
Report Text: KBIS 221252Z 30015G21KT 10SM CLR 14/08 A2978 RMK AO2 SLP081 T01390083
Loading
Personal Weather Stations






























Interactive Weather Map
Tropical Storm Tracking
New forecast layout! Learn more

10-Day Weather Forecast

Advertisements
Track Severe Weather on mobile